PWSweather.com
Personal Weather Stations
Station Observations
BREEJEDURP
'sGravenzande, WestlandNL

'sGravenzandeWestlandNL

Lat: 52.00095260000001, Lon: 4.174256600000035

Elevation: 3

Station Type: Davis Vantage Pro2 Plus

www.breejedurp.nl

High Low Average
Temperature 41.7°F5.4°F 36.3°F2.4°F 39.4°F4.1°F
Dew Point 38.0°F3.3°F 34.0°F1.1°F 36.1°F2.3°F
Winds 15.0 mph W24.1 mph W Calm Calm 5.0 mph 8.0 mph
Wind Gusts 19.0 mph30.6 mph -- 7.6 mph12.2 mph
Humidity 93% 76% 88%
Pressure 29.76 in1007.80 in 29.50 in999.00 in -
Precipitation 0.00 in0.00 in - -
Hour Temp Dew Point Humidity Winds Wind Gusts Pressure Precip Precip Rate Daily Precip Total
12:04 AM 41.7°F5.4°C 35.7°F2.1°C 79% 11.0 mph W17.7 kmh W 16.0 mph25.7 kmh 29.75 in1007.5 mb 0.00 in0.0 mm 0.00 in0.0 mm 0.00 in0.0 mm
12:09 AM 41.7°F5.4°C 35.4°F1.9°C 78% 15.0 mph W24.1 kmh W 18.0 mph29.0 kmh 29.75 in1007.5 mb 0.00 in0.0 mm 0.00 in0.0 mm 0.00 in0.0 mm
12:14 AM 41.7°F5.4°C 35.1°F1.7°C 77% 14.0 mph W22.5 kmh W 17.0 mph27.4 kmh 29.75 in1007.5 mb 0.00 in0.0 mm 0.00 in0.0 mm 0.00 in0.0 mm
12:19 AM 41.7°F5.4°C 35.4°F1.9°C 78% 12.0 mph W19.3 kmh W 17.0 mph27.4 kmh 29.76 in1007.8 mb 0.00 in0.0 mm 0.00 in0.0 mm 0.00 in0.0 mm
12:24 AM 41.7°F5.4°C 35.4°F1.9°C 78% 11.0 mph W17.7 kmh W 14.0 mph22.5 kmh 29.75 in1007.5 mb 0.00 in0.0 mm 0.00 in0.0 mm 0.00 in0.0 mm
12:29 AM 41.5°F5.3°C 35.2°F1.8°C 78% 9.0 mph W14.5 kmh W 12.0 mph19.3 kmh 29.75 in1007.5 mb 0.00 in0.0 mm 0.00 in0.0 mm 0.00 in0.0 mm
12:34 AM 41.5°F5.3°C 35.2°F1.8°C 78% 10.0 mph W16.1 kmh W 15.0 mph24.1 kmh 29.75 in1007.5 mb 0.00 in0.0 mm 0.00 in0.0 mm 0.00 in0.0 mm
12:39 AM 41.5°F5.3°C 35.5°F1.9°C 79% 8.0 mph WSW12.9 kmh WSW 10.0 mph16.1 kmh 29.75 in1007.5 mb 0.00 in0.0 mm 0.00 in0.0 mm 0.00 in0.0 mm
12:44 AM 41.5°F5.3°C 35.2°F1.8°C 78% 10.0 mph WSW16.1 kmh WSW 13.0 mph20.9 kmh 29.75 in1007.5 mb 0.00 in0.0 mm 0.00 in0.0 mm 0.00 in0.0 mm
12:49 AM 41.5°F5.3°C 35.2°F1.8°C 78% 11.0 mph WSW17.7 kmh WSW 16.0 mph25.7 kmh 29.75 in1007.5 mb 0.00 in0.0 mm 0.00 in0.0 mm 0.00 in0.0 mm
12:54 AM 41.5°F5.3°C 34.9°F1.6°C 77% 11.0 mph W17.7 kmh W 15.0 mph24.1 kmh 29.75 in1007.5 mb 0.00 in0.0 mm 0.00 in0.0 mm 0.00 in0.0 mm
12:59 AM 41.5°F5.3°C 34.6°F1.4°C 76% 8.0 mph W12.9 kmh W 12.0 mph19.3 kmh 29.75 in1007.5 mb 0.00 in0.0 mm 0.00 in0.0 mm 0.00 in0.0 mm
01:04 AM 41.5°F5.3°C 34.9°F1.6°C 77% 9.0 mph W14.5 kmh W 11.0 mph17.7 kmh 29.75 in1007.5 mb 0.00 in0.0 mm 0.00 in0.0 mm 0.00 in0.0 mm
01:09 AM 41.5°F5.3°C 34.9°F1.6°C 77% 7.0 mph W11.3 kmh W 11.0 mph17.7 kmh 29.75 in1007.5 mb 0.00 in0.0 mm 0.00 in0.0 mm 0.00 in0.0 mm
01:14 AM 41.7°F5.4°C 35.4°F1.9°C 78% 8.0 mph WSW12.9 kmh WSW 12.0 mph19.3 kmh 29.75 in1007.5 mb 0.00 in0.0 mm 0.00 in0.0 mm 0.00 in0.0 mm
01:19 AM 41.5°F5.3°C 35.2°F1.8°C 78% 8.0 mph W12.9 kmh W 11.0 mph17.7 kmh 29.75 in1007.5 mb 0.00 in0.0 mm 0.00 in0.0 mm 0.00 in0.0 mm
01:24 AM 41.5°F5.3°C 35.5°F1.9°C 79% 7.0 mph W11.3 kmh W 12.0 mph19.3 kmh 29.75 in1007.5 mb 0.00 in0.0 mm 0.00 in0.0 mm 0.00 in0.0 mm
01:29 AM 41.5°F5.3°C 35.5°F1.9°C 79% 10.0 mph W16.1 kmh W 16.0 mph25.7 kmh 29.75 in1007.5 mb 0.00 in0.0 mm 0.00 in0.0 mm 0.00 in0.0 mm
01:34 AM 41.5°F5.3°C 35.2°F1.8°C 78% 10.0 mph WSW16.1 kmh WSW 14.0 mph22.5 kmh 29.75 in1007.5 mb 0.00 in0.0 mm 0.00 in0.0 mm 0.00 in0.0 mm
01:39 AM 41.4°F5.2°C 35.0°F1.7°C 78% 8.0 mph WSW12.9 kmh WSW 12.0 mph19.3 kmh 29.75 in1007.5 mb 0.00 in0.0 mm 0.00 in0.0 mm 0.00 in0.0 mm
01:44 AM 41.5°F5.3°C 35.2°F1.8°C 78% 8.0 mph W12.9 kmh W 12.0 mph19.3 kmh 29.75 in1007.5 mb 0.00 in0.0 mm 0.00 in0.0 mm 0.00 in0.0 mm
01:49 AM 41.5°F5.3°C 35.2°F1.8°C 78% 11.0 mph WSW17.7 kmh WSW 19.0 mph30.6 kmh 29.75 in1007.5 mb 0.00 in0.0 mm 0.00 in0.0 mm 0.00 in0.0 mm
01:54 AM 41.7°F5.4°C 35.4°F1.9°C 78% 10.0 mph W16.1 kmh W 13.0 mph20.9 kmh 29.75 in1007.5 mb 0.00 in0.0 mm 0.00 in0.0 mm 0.00 in0.0 mm
01:59 AM 41.5°F5.3°C 35.5°F1.9°C 79% 10.0 mph W16.1 kmh W 14.0 mph22.5 kmh 29.75 in1007.5 mb 0.00 in0.0 mm 0.00 in0.0 mm 0.00 in0.0 mm
02:04 AM 41.5°F5.3°C 35.5°F1.9°C 79% 10.0 mph W16.1 kmh W 11.0 mph17.7 kmh 29.75 in1007.5 mb 0.00 in0.0 mm 0.00 in0.0 mm 0.00 in0.0 mm
02:09 AM 41.5°F5.3°C 35.5°F1.9°C 79% 11.0 mph W17.7 kmh W 14.0 mph22.5 kmh 29.75 in1007.5 mb 0.00 in0.0 mm 0.00 in0.0 mm 0.00 in0.0 mm
02:14 AM 41.5°F5.3°C 35.5°F1.9°C 79% 7.0 mph WSW11.3 kmh WSW 11.0 mph17.7 kmh 29.75 in1007.5 mb 0.00 in0.0 mm 0.00 in0.0 mm 0.00 in0.0 mm
02:19 AM 41.5°F5.3°C 35.8°F2.1°C 80% 6.0 mph WSW9.7 kmh WSW 9.0 mph14.5 kmh 29.75 in1007.5 mb 0.00 in0.0 mm 0.00 in0.0 mm 0.00 in0.0 mm
02:24 AM 41.5°F5.3°C 35.8°F2.1°C 80% 8.0 mph WSW12.9 kmh WSW 13.0 mph20.9 kmh 29.75 in1007.5 mb 0.00 in0.0 mm 0.00 in0.0 mm 0.00 in0.0 mm
02:29 AM 41.5°F5.3°C 35.8°F2.1°C 80% 10.0 mph W16.1 kmh W 13.0 mph20.9 kmh 29.75 in1007.5 mb 0.00 in0.0 mm 0.00 in0.0 mm 0.00 in0.0 mm
02:34 AM 41.5°F5.3°C 35.5°F1.9°C 79% 7.0 mph WSW11.3 kmh WSW 10.0 mph16.1 kmh 29.75 in1007.5 mb 0.00 in0.0 mm 0.00 in0.0 mm 0.00 in0.0 mm
02:39 AM 41.5°F5.3°C 35.5°F1.9°C 79% 8.0 mph WSW12.9 kmh WSW 12.0 mph19.3 kmh 29.75 in1007.5 mb 0.00 in0.0 mm 0.00 in0.0 mm 0.00 in0.0 mm
02:44 AM 41.4°F5.2°C 35.4°F1.9°C 79% 10.0 mph W16.1 kmh W 17.0 mph27.4 kmh 29.75 in1007.5 mb 0.00 in0.0 mm 0.00 in0.0 mm 0.00 in0.0 mm
02:49 AM 41.4°F5.2°C 35.4°F1.9°C 79% 9.0 mph W14.5 kmh W 14.0 mph22.5 kmh 29.75 in1007.5 mb 0.00 in0.0 mm 0.00 in0.0 mm 0.00 in0.0 mm
02:54 AM 41.2°F5.1°C 35.2°F1.8°C 79% 9.0 mph W14.5 kmh W 13.0 mph20.9 kmh 29.74 in1007.1 mb 0.00 in0.0 mm 0.00 in0.0 mm 0.00 in0.0 mm
02:59 AM 41.2°F5.1°C 35.2°F1.8°C 79% 11.0 mph W17.7 kmh W 15.0 mph24.1 kmh 29.74 in1007.1 mb 0.00 in0.0 mm 0.00 in0.0 mm 0.00 in0.0 mm
03:04 AM 41.2°F5.1°C 35.2°F1.8°C 79% 10.0 mph W16.1 kmh W 13.0 mph20.9 kmh 29.74 in1007.1 mb 0.00 in0.0 mm 0.00 in0.0 mm 0.00 in0.0 mm
03:09 AM 41.2°F5.1°C 35.2°F1.8°C 79% 6.0 mph W9.7 kmh W 9.0 mph14.5 kmh 29.74 in1007.1 mb 0.00 in0.0 mm 0.00 in0.0 mm 0.00 in0.0 mm
03:14 AM 40.8°F4.9°C 35.1°F1.7°C 80% 9.0 mph WSW14.5 kmh WSW 13.0 mph20.9 kmh 29.74 in1007.1 mb 0.00 in0.0 mm 0.00 in0.0 mm 0.00 in0.0 mm
03:19 AM 40.8°F4.9°C 34.8°F1.6°C 79% 5.0 mph WSW8.0 kmh WSW 9.0 mph14.5 kmh 29.74 in1007.1 mb 0.00 in0.0 mm 0.00 in0.0 mm 0.00 in0.0 mm
03:24 AM 40.6°F4.8°C 34.7°F1.5°C 79% 4.0 mph WSW6.4 kmh WSW 8.0 mph12.9 kmh 29.73 in1006.8 mb 0.00 in0.0 mm 0.00 in0.0 mm 0.00 in0.0 mm
03:29 AM 40.6°F4.8°C 35.0°F1.7°C 80% 5.0 mph SW8.0 kmh SW 10.0 mph16.1 kmh 29.73 in1006.8 mb 0.00 in0.0 mm 0.00 in0.0 mm 0.00 in0.0 mm
03:34 AM 40.6°F4.8°C 35.0°F1.7°C 80% 6.0 mph SW9.7 kmh SW 8.0 mph12.9 kmh 29.73 in1006.8 mb 0.00 in0.0 mm 0.00 in0.0 mm 0.00 in0.0 mm
03:39 AM 40.6°F4.8°C 35.0°F1.7°C 80% 6.0 mph WSW9.7 kmh WSW 9.0 mph14.5 kmh 29.73 in1006.8 mb 0.00 in0.0 mm 0.00 in0.0 mm 0.00 in0.0 mm
03:44 AM 40.6°F4.8°C 35.0°F1.7°C 80% 6.0 mph WSW9.7 kmh WSW 12.0 mph19.3 kmh 29.73 in1006.8 mb 0.00 in0.0 mm 0.00 in0.0 mm 0.00 in0.0 mm
03:49 AM 40.5°F4.7°C 34.8°F1.6°C 80% 8.0 mph WSW12.9 kmh WSW 12.0 mph19.3 kmh 29.73 in1006.8 mb 0.00 in0.0 mm 0.00 in0.0 mm 0.00 in0.0 mm
03:54 AM 40.6°F4.8°C 35.0°F1.7°C 80% 5.0 mph SW8.0 kmh SW 8.0 mph12.9 kmh 29.73 in1006.8 mb 0.00 in0.0 mm 0.00 in0.0 mm 0.00 in0.0 mm
03:59 AM 40.5°F4.7°C 34.8°F1.6°C 80% 9.0 mph WSW14.5 kmh WSW 15.0 mph24.1 kmh 29.73 in1006.8 mb 0.00 in0.0 mm 0.00 in0.0 mm 0.00 in0.0 mm
04:04 AM 40.6°F4.8°C 34.7°F1.5°C 79% 3.0 mph WSW4.8 kmh WSW 5.0 mph8.0 kmh 29.72 in1006.4 mb 0.00 in0.0 mm 0.00 in0.0 mm 0.00 in0.0 mm
04:09 AM 40.6°F4.8°C 34.7°F1.5°C 79% 7.0 mph SW11.3 kmh SW 11.0 mph17.7 kmh 29.72 in1006.4 mb 0.00 in0.0 mm 0.00 in0.0 mm 0.00 in0.0 mm
04:14 AM 40.6°F4.8°C 34.7°F1.5°C 79% 6.0 mph SW9.7 kmh SW 10.0 mph16.1 kmh 29.72 in1006.4 mb 0.00 in0.0 mm 0.00 in0.0 mm 0.00 in0.0 mm
04:19 AM 40.6°F4.8°C 34.7°F1.5°C 79% 6.0 mph SW9.7 kmh SW 9.0 mph14.5 kmh 29.72 in1006.4 mb 0.00 in0.0 mm 0.00 in0.0 mm 0.00 in0.0 mm
04:24 AM 40.5°F4.7°C 34.8°F1.6°C 80% 7.0 mph W11.3 kmh W 12.0 mph19.3 kmh 29.72 in1006.4 mb 0.00 in0.0 mm 0.00 in0.0 mm 0.00 in0.0 mm
04:29 AM 40.5°F4.7°C 34.5°F1.4°C 79% 7.0 mph WSW11.3 kmh WSW 10.0 mph16.1 kmh 29.72 in1006.4 mb 0.00 in0.0 mm 0.00 in0.0 mm 0.00 in0.0 mm
04:34 AM 40.5°F4.7°C 34.8°F1.6°C 80% 3.0 mph SW4.8 kmh SW 6.0 mph9.7 kmh 29.71 in1006.1 mb 0.00 in0.0 mm 0.00 in0.0 mm 0.00 in0.0 mm
04:39 AM 40.5°F4.7°C 34.8°F1.6°C 80% 5.0 mph WSW8.0 kmh WSW 8.0 mph12.9 kmh 29.71 in1006.1 mb 0.00 in0.0 mm 0.00 in0.0 mm 0.00 in0.0 mm
04:44 AM 40.5°F4.7°C 34.8°F1.6°C 80% 2.0 mph WSW3.2 kmh WSW 8.0 mph12.9 kmh 29.71 in1006.1 mb 0.00 in0.0 mm 0.00 in0.0 mm 0.00 in0.0 mm
04:49 AM 40.5°F4.7°C 34.8°F1.6°C 80% 6.0 mph W9.7 kmh W 9.0 mph14.5 kmh 29.71 in1006.1 mb 0.00 in0.0 mm 0.00 in0.0 mm 0.00 in0.0 mm
04:54 AM 40.5°F4.7°C 35.1°F1.7°C 81% 6.0 mph W9.7 kmh W 9.0 mph14.5 kmh 29.71 in1006.1 mb 0.00 in0.0 mm 0.00 in0.0 mm 0.00 in0.0 mm
04:59 AM 40.5°F4.7°C 35.1°F1.7°C 81% 7.0 mph WSW11.3 kmh WSW 11.0 mph17.7 kmh 29.71 in1006.1 mb 0.00 in0.0 mm 0.00 in0.0 mm 0.00 in0.0 mm
05:04 AM 40.5°F4.7°C 35.1°F1.7°C 81% 7.0 mph WSW11.3 kmh WSW 12.0 mph19.3 kmh 29.71 in1006.1 mb 0.00 in0.0 mm 0.00 in0.0 mm 0.00 in0.0 mm
05:09 AM 40.5°F4.7°C 35.1°F1.7°C 81% 7.0 mph WSW11.3 kmh WSW 9.0 mph14.5 kmh 29.70 in1005.8 mb 0.00 in0.0 mm 0.00 in0.0 mm 0.00 in0.0 mm
05:14 AM 40.5°F4.7°C 35.1°F1.7°C 81% 5.0 mph WSW8.0 kmh WSW 8.0 mph12.9 kmh 29.70 in1005.8 mb 0.00 in0.0 mm 0.00 in0.0 mm 0.00 in0.0 mm
05:19 AM 40.5°F4.7°C 35.1°F1.7°C 81% 6.0 mph WSW9.7 kmh WSW 9.0 mph14.5 kmh 29.70 in1005.8 mb 0.00 in0.0 mm 0.00 in0.0 mm 0.00 in0.0 mm
05:24 AM 40.6°F4.8°C 35.3°F1.8°C 81% 8.0 mph W12.9 kmh W 14.0 mph22.5 kmh 29.70 in1005.8 mb 0.00 in0.0 mm 0.00 in0.0 mm 0.00 in0.0 mm
05:29 AM 40.6°F4.8°C 35.3°F1.8°C 81% 6.0 mph W9.7 kmh W 8.0 mph12.9 kmh 29.70 in1005.8 mb 0.00 in0.0 mm 0.00 in0.0 mm 0.00 in0.0 mm
05:34 AM 40.6°F4.8°C 35.3°F1.8°C 81% 4.0 mph W6.4 kmh W 7.0 mph11.3 kmh 29.70 in1005.8 mb 0.00 in0.0 mm 0.00 in0.0 mm 0.00 in0.0 mm
05:39 AM 40.6°F4.8°C 35.3°F1.8°C 81% 7.0 mph W11.3 kmh W 10.0 mph16.1 kmh 29.69 in1005.4 mb 0.00 in0.0 mm 0.00 in0.0 mm 0.00 in0.0 mm
05:44 AM 40.6°F4.8°C 35.3°F1.8°C 81% 8.0 mph W12.9 kmh W 13.0 mph20.9 kmh 29.69 in1005.4 mb 0.00 in0.0 mm 0.00 in0.0 mm 0.00 in0.0 mm
05:49 AM 40.6°F4.8°C 35.3°F1.8°C 81% 3.0 mph SW4.8 kmh SW 7.0 mph11.3 kmh 29.69 in1005.4 mb 0.00 in0.0 mm 0.00 in0.0 mm 0.00 in0.0 mm
05:54 AM 40.5°F4.7°C 35.1°F1.7°C 81% 6.0 mph WSW9.7 kmh WSW 8.0 mph12.9 kmh 29.69 in1005.4 mb 0.00 in0.0 mm 0.00 in0.0 mm 0.00 in0.0 mm
05:59 AM 40.5°F4.7°C 35.1°F1.7°C 81% 4.0 mph SW6.4 kmh SW 7.0 mph11.3 kmh 29.68 in1005.1 mb 0.00 in0.0 mm 0.00 in0.0 mm 0.00 in0.0 mm
06:04 AM 40.5°F4.7°C 35.1°F1.7°C 81% 5.0 mph WSW8.0 kmh WSW 8.0 mph12.9 kmh 29.68 in1005.1 mb 0.00 in0.0 mm 0.00 in0.0 mm 0.00 in0.0 mm
06:09 AM 40.5°F4.7°C 35.1°F1.7°C 81% 5.0 mph WSW8.0 kmh WSW 9.0 mph14.5 kmh 29.68 in1005.1 mb 0.00 in0.0 mm 0.00 in0.0 mm 0.00 in0.0 mm
06:14 AM 40.5°F4.7°C 35.1°F1.7°C 81% 4.0 mph SW6.4 kmh SW 8.0 mph12.9 kmh 29.68 in1005.1 mb 0.00 in0.0 mm 0.00 in0.0 mm 0.00 in0.0 mm
06:19 AM 40.3°F4.6°C 35.2°F1.8°C 82% 5.0 mph SW8.0 kmh SW 8.0 mph12.9 kmh 29.68 in1005.1 mb 0.00 in0.0 mm 0.00 in0.0 mm 0.00 in0.0 mm
06:24 AM 40.3°F4.6°C 34.9°F1.6°C 81% 3.0 mph WSW4.8 kmh WSW 4.0 mph6.4 kmh 29.68 in1005.1 mb 0.00 in0.0 mm 0.00 in0.0 mm 0.00 in0.0 mm
06:29 AM 40.3°F4.6°C 34.9°F1.6°C 81% 2.0 mph SSW3.2 kmh SSW 4.0 mph6.4 kmh 29.68 in1005.1 mb 0.00 in0.0 mm 0.00 in0.0 mm 0.00 in0.0 mm
06:34 AM 40.5°F4.7°C 35.1°F1.7°C 81% 2.0 mph SSW3.2 kmh SSW 4.0 mph6.4 kmh 29.68 in1005.1 mb 0.00 in0.0 mm 0.00 in0.0 mm 0.00 in0.0 mm
06:39 AM 40.5°F4.7°C 35.1°F1.7°C 81% 4.0 mph SW6.4 kmh SW 6.0 mph9.7 kmh 29.68 in1005.1 mb 0.00 in0.0 mm 0.00 in0.0 mm 0.00 in0.0 mm
06:44 AM 40.8°F4.9°C 35.5°F1.9°C 81% 5.0 mph SSW8.0 kmh SSW 7.0 mph11.3 kmh 29.68 in1005.1 mb 0.00 in0.0 mm 0.00 in0.0 mm 0.00 in0.0 mm
06:49 AM 40.8°F4.9°C 35.8°F2.1°C 82% 3.0 mph SSW4.8 kmh SSW 7.0 mph11.3 kmh 29.68 in1005.1 mb 0.00 in0.0 mm 0.00 in0.0 mm 0.00 in0.0 mm
06:54 AM 40.8°F4.9°C 36.1°F2.3°C 83% 3.0 mph SW4.8 kmh SW 4.0 mph6.4 kmh 29.67 in1004.7 mb 0.00 in0.0 mm 0.00 in0.0 mm 0.00 in0.0 mm
06:59 AM 40.8°F4.9°C 36.1°F2.3°C 83% 6.0 mph SW9.7 kmh SW 9.0 mph14.5 kmh 29.67 in1004.7 mb 0.00 in0.0 mm 0.00 in0.0 mm 0.00 in0.0 mm
07:04 AM 41.0°F5.0°C 36.2°F2.3°C 83% 5.0 mph SW8.0 kmh SW 10.0 mph16.1 kmh 29.68 in1005.1 mb 0.00 in0.0 mm 0.00 in0.0 mm 0.00 in0.0 mm
07:09 AM 40.8°F4.9°C 36.1°F2.3°C 83% 6.0 mph SSW9.7 kmh SSW 8.0 mph12.9 kmh 29.67 in1004.7 mb 0.00 in0.0 mm 0.00 in0.0 mm 0.00 in0.0 mm
07:14 AM 39.7°F4.3°C 35.6°F2.0°C 85% 6.0 mph S9.7 kmh S 10.0 mph16.1 kmh 29.68 in1005.1 mb 0.00 in0.0 mm 0.00 in0.0 mm 0.00 in0.0 mm
07:19 AM 38.7°F3.7°C 35.1°F1.7°C 87% 5.0 mph S8.0 kmh S 7.0 mph11.3 kmh 29.67 in1004.7 mb 0.00 in0.0 mm 0.00 in0.0 mm 0.00 in0.0 mm
07:24 AM 38.3°F3.5°C 35.1°F1.7°C 88% 5.0 mph SE8.0 kmh SE 7.0 mph11.3 kmh 29.67 in1004.7 mb 0.00 in0.0 mm 0.00 in0.0 mm 0.00 in0.0 mm
07:29 AM 37.8°F3.2°C 34.8°F1.6°C 89% 4.0 mph SE6.4 kmh SE 6.0 mph9.7 kmh 29.67 in1004.7 mb 0.00 in0.0 mm 0.00 in0.0 mm 0.00 in0.0 mm
07:34 AM 37.6°F3.1°C 34.6°F1.4°C 89% 6.0 mph S9.7 kmh S 8.0 mph12.9 kmh 29.67 in1004.7 mb 0.00 in0.0 mm 0.00 in0.0 mm 0.00 in0.0 mm
07:39 AM 37.4°F3.0°C 34.7°F1.5°C 90% 7.0 mph S11.3 kmh S 9.0 mph14.5 kmh 29.67 in1004.7 mb 0.00 in0.0 mm 0.00 in0.0 mm 0.00 in0.0 mm
07:44 AM 37.2°F2.9°C 34.6°F1.4°C 90% 7.0 mph S11.3 kmh S 9.0 mph14.5 kmh 29.67 in1004.7 mb 0.00 in0.0 mm 0.00 in0.0 mm 0.00 in0.0 mm
07:49 AM 37.2°F2.9°C 34.6°F1.4°C 90% 7.0 mph S11.3 kmh S 9.0 mph14.5 kmh 29.67 in1004.7 mb 0.00 in0.0 mm 0.00 in0.0 mm 0.00 in0.0 mm
07:54 AM 37.4°F3.0°C 34.7°F1.5°C 90% 4.0 mph SSE6.4 kmh SSE 7.0 mph11.3 kmh 29.66 in1004.4 mb 0.00 in0.0 mm 0.00 in0.0 mm 0.00 in0.0 mm
07:59 AM 37.4°F3.0°C 34.7°F1.5°C 90% 7.0 mph SSE11.3 kmh SSE 10.0 mph16.1 kmh 29.66 in1004.4 mb 0.00 in0.0 mm 0.00 in0.0 mm 0.00 in0.0 mm
08:04 AM 37.0°F2.8°C 34.4°F1.3°C 90% 8.0 mph SSW12.9 kmh SSW 10.0 mph16.1 kmh 29.66 in1004.4 mb 0.00 in0.0 mm 0.00 in0.0 mm 0.00 in0.0 mm
08:09 AM 36.9°F2.7°C 34.5°F1.4°C 91% 8.0 mph S12.9 kmh S 11.0 mph17.7 kmh 29.66 in1004.4 mb 0.00 in0.0 mm 0.00 in0.0 mm 0.00 in0.0 mm
08:14 AM 36.9°F2.7°C 34.5°F1.4°C 91% 6.0 mph S9.7 kmh S 9.0 mph14.5 kmh 29.66 in1004.4 mb 0.00 in0.0 mm 0.00 in0.0 mm 0.00 in0.0 mm
08:19 AM 36.7°F2.6°C 34.3°F1.3°C 91% 6.0 mph S9.7 kmh S 11.0 mph17.7 kmh 29.66 in1004.4 mb 0.00 in0.0 mm 0.00 in0.0 mm 0.00 in0.0 mm
08:24 AM 36.7°F2.6°C 34.3°F1.3°C 91% 6.0 mph S9.7 kmh S 12.0 mph19.3 kmh 29.66 in1004.4 mb 0.00 in0.0 mm 0.00 in0.0 mm 0.00 in0.0 mm
08:29 AM 36.5°F2.5°C 34.1°F1.2°C 91% 6.0 mph S9.7 kmh S 9.0 mph14.5 kmh 29.66 in1004.4 mb 0.00 in0.0 mm 0.00 in0.0 mm 0.00 in0.0 mm
08:34 AM 36.5°F2.5°C 34.1°F1.2°C 91% 5.0 mph S8.0 kmh S 7.0 mph11.3 kmh 29.66 in1004.4 mb 0.00 in0.0 mm 0.00 in0.0 mm 0.00 in0.0 mm
08:39 AM 36.3°F2.4°C 34.0°F1.1°C 91% 6.0 mph S9.7 kmh S 10.0 mph16.1 kmh 29.65 in1004.1 mb 0.00 in0.0 mm 0.00 in0.0 mm 0.00 in0.0 mm
08:44 AM 36.3°F2.4°C 34.0°F1.1°C 91% 8.0 mph S12.9 kmh S 12.0 mph19.3 kmh 29.65 in1004.1 mb 0.00 in0.0 mm 0.00 in0.0 mm 0.00 in0.0 mm
08:49 AM 36.3°F2.4°C 34.0°F1.1°C 91% 4.0 mph SSE6.4 kmh SSE 6.0 mph9.7 kmh 29.65 in1004.1 mb 0.00 in0.0 mm 0.00 in0.0 mm 0.00 in0.0 mm
08:54 AM 36.3°F2.4°C 34.0°F1.1°C 91% 4.0 mph SSE6.4 kmh SSE 7.0 mph11.3 kmh 29.65 in1004.1 mb 0.00 in0.0 mm 0.00 in0.0 mm 0.00 in0.0 mm
08:59 AM 36.3°F2.4°C 34.2°F1.2°C 92% 4.0 mph S6.4 kmh S 6.0 mph9.7 kmh 29.65 in1004.1 mb 0.00 in0.0 mm 0.00 in0.0 mm 0.00 in0.0 mm
09:04 AM 36.3°F2.4°C 34.2°F1.2°C 92% 4.0 mph SSE6.4 kmh SSE 5.0 mph8.0 kmh 29.65 in1004.1 mb 0.00 in0.0 mm 0.00 in0.0 mm 0.00 in0.0 mm
09:09 AM 36.3°F2.4°C 34.2°F1.2°C 92% 4.0 mph SE6.4 kmh SE 6.0 mph9.7 kmh 29.64 in1003.7 mb 0.00 in0.0 mm 0.00 in0.0 mm 0.00 in0.0 mm
09:14 AM 36.3°F2.4°C 34.2°F1.2°C 92% 4.0 mph SSE6.4 kmh SSE 6.0 mph9.7 kmh 29.64 in1003.7 mb 0.00 in0.0 mm 0.00 in0.0 mm 0.00 in0.0 mm
09:19 AM 36.3°F2.4°C 34.2°F1.2°C 92% 7.0 mph SSE11.3 kmh SSE 10.0 mph16.1 kmh 29.64 in1003.7 mb 0.00 in0.0 mm 0.00 in0.0 mm 0.00 in0.0 mm
09:24 AM 36.3°F2.4°C 34.2°F1.2°C 92% 7.0 mph S11.3 kmh S 12.0 mph19.3 kmh 29.64 in1003.7 mb 0.00 in0.0 mm 0.00 in0.0 mm 0.00 in0.0 mm
09:29 AM 36.5°F2.5°C 34.4°F1.3°C 92% 4.0 mph SE6.4 kmh SE 7.0 mph11.3 kmh 29.64 in1003.7 mb 0.00 in0.0 mm 0.00 in0.0 mm 0.00 in0.0 mm
09:34 AM 36.7°F2.6°C 34.6°F1.4°C 92% 6.0 mph SE9.7 kmh SE 8.0 mph12.9 kmh 29.65 in1004.1 mb 0.00 in0.0 mm 0.00 in0.0 mm 0.00 in0.0 mm
09:39 AM 36.9°F2.7°C 34.8°F1.6°C 92% 5.0 mph SE8.0 kmh SE 8.0 mph12.9 kmh 29.64 in1003.7 mb 0.00 in0.0 mm 0.00 in0.0 mm 0.00 in0.0 mm
09:44 AM 36.9°F2.7°C 34.8°F1.6°C 92% 8.0 mph SE12.9 kmh SE 10.0 mph16.1 kmh 29.64 in1003.7 mb 0.00 in0.0 mm 0.00 in0.0 mm 0.00 in0.0 mm
09:49 AM 37.0°F2.8°C 34.9°F1.6°C 92% 6.0 mph SSW9.7 kmh SSW 11.0 mph17.7 kmh 29.64 in1003.7 mb 0.00 in0.0 mm 0.00 in0.0 mm 0.00 in0.0 mm
09:54 AM 37.0°F2.8°C 34.9°F1.6°C 92% 5.0 mph SSE8.0 kmh SSE 9.0 mph14.5 kmh 29.63 in1003.4 mb 0.00 in0.0 mm 0.00 in0.0 mm 0.00 in0.0 mm
09:59 AM 37.0°F2.8°C 34.9°F1.6°C 92% 4.0 mph SSE6.4 kmh SSE 5.0 mph8.0 kmh 29.63 in1003.4 mb 0.00 in0.0 mm 0.00 in0.0 mm 0.00 in0.0 mm
10:04 AM 37.0°F2.8°C 34.9°F1.6°C 92% 6.0 mph SSE9.7 kmh SSE 10.0 mph16.1 kmh 29.63 in1003.4 mb 0.00 in0.0 mm 0.00 in0.0 mm 0.00 in0.0 mm
10:09 AM 37.2°F2.9°C 35.1°F1.7°C 92% 4.0 mph SE6.4 kmh SE 7.0 mph11.3 kmh 29.63 in1003.4 mb 0.00 in0.0 mm 0.00 in0.0 mm 0.00 in0.0 mm
10:14 AM 37.2°F2.9°C 35.1°F1.7°C 92% 4.0 mph SE6.4 kmh SE 6.0 mph9.7 kmh 29.63 in1003.4 mb 0.00 in0.0 mm 0.00 in0.0 mm 0.00 in0.0 mm
10:19 AM 37.4°F3.0°C 35.3°F1.8°C 92% 7.0 mph SE11.3 kmh SE 10.0 mph16.1 kmh 29.63 in1003.4 mb 0.00 in0.0 mm 0.00 in0.0 mm 0.00 in0.0 mm
10:24 AM 37.6°F3.1°C 35.5°F1.9°C 92% 5.0 mph SSE8.0 kmh SSE 8.0 mph12.9 kmh 29.63 in1003.4 mb 0.00 in0.0 mm 0.00 in0.0 mm 0.00 in0.0 mm
10:29 AM 37.6°F3.1°C 35.5°F1.9°C 92% 6.0 mph SSE9.7 kmh SSE 9.0 mph14.5 kmh 29.62 in1003.0 mb 0.00 in0.0 mm 0.00 in0.0 mm 0.00 in0.0 mm
10:34 AM 37.8°F3.2°C 35.7°F2.1°C 92% 5.0 mph SE8.0 kmh SE 8.0 mph12.9 kmh 29.62 in1003.0 mb 0.00 in0.0 mm 0.00 in0.0 mm 0.00 in0.0 mm
10:39 AM 37.8°F3.2°C 35.9°F2.2°C 93% 5.0 mph SE8.0 kmh SE 9.0 mph14.5 kmh 29.62 in1003.0 mb 0.00 in0.0 mm 0.00 in0.0 mm 0.00 in0.0 mm
10:44 AM 37.8°F3.2°C 35.9°F2.2°C 93% 5.0 mph S8.0 kmh S 9.0 mph14.5 kmh 29.62 in1003.0 mb 0.00 in0.0 mm 0.00 in0.0 mm 0.00 in0.0 mm
10:49 AM 37.9°F3.3°C 36.1°F2.3°C 93% 5.0 mph S8.0 kmh S 8.0 mph12.9 kmh 29.62 in1003.0 mb 0.00 in0.0 mm 0.00 in0.0 mm 0.00 in0.0 mm
10:54 AM 37.9°F3.3°C 36.1°F2.3°C 93% 6.0 mph SSE9.7 kmh SSE 9.0 mph14.5 kmh 29.61 in1002.7 mb 0.00 in0.0 mm 0.00 in0.0 mm 0.00 in0.0 mm
10:59 AM 37.9°F3.3°C 36.1°F2.3°C 93% 5.0 mph S8.0 kmh S 7.0 mph11.3 kmh 29.61 in1002.7 mb 0.00 in0.0 mm 0.00 in0.0 mm 0.00 in0.0 mm
11:04 AM 37.9°F3.3°C 36.1°F2.3°C 93% 6.0 mph ESE9.7 kmh ESE 9.0 mph14.5 kmh 29.61 in1002.7 mb 0.00 in0.0 mm 0.00 in0.0 mm 0.00 in0.0 mm
11:09 AM 38.1°F3.4°C 36.3°F2.4°C 93% 5.0 mph SE8.0 kmh SE 8.0 mph12.9 kmh 29.61 in1002.7 mb 0.00 in0.0 mm 0.00 in0.0 mm 0.00 in0.0 mm
11:14 AM 38.1°F3.4°C 36.3°F2.4°C 93% 5.0 mph S8.0 kmh S 8.0 mph12.9 kmh 29.61 in1002.7 mb 0.00 in0.0 mm 0.00 in0.0 mm 0.00 in0.0 mm
11:19 AM 38.1°F3.4°C 36.3°F2.4°C 93% 5.0 mph S8.0 kmh S 8.0 mph12.9 kmh 29.61 in1002.7 mb 0.00 in0.0 mm 0.00 in0.0 mm 0.00 in0.0 mm
11:24 AM 38.3°F3.5°C 36.5°F2.5°C 93% 6.0 mph S9.7 kmh S 9.0 mph14.5 kmh 29.62 in1003.0 mb 0.00 in0.0 mm 0.00 in0.0 mm 0.00 in0.0 mm
11:29 AM 38.3°F3.5°C 36.5°F2.5°C 93% 5.0 mph SSE8.0 kmh SSE 7.0 mph11.3 kmh 29.62 in1003.0 mb 0.00 in0.0 mm 0.00 in0.0 mm 0.00 in0.0 mm
11:34 AM 38.5°F3.6°C 36.6°F2.6°C 93% 5.0 mph SE8.0 kmh SE 7.0 mph11.3 kmh 29.62 in1003.0 mb 0.00 in0.0 mm 0.00 in0.0 mm 0.00 in0.0 mm
11:39 AM 38.5°F3.6°C 36.6°F2.6°C 93% 6.0 mph SSE9.7 kmh SSE 8.0 mph12.9 kmh 29.61 in1002.7 mb 0.00 in0.0 mm 0.00 in0.0 mm 0.00 in0.0 mm
11:44 AM 38.5°F3.6°C 36.6°F2.6°C 93% 6.0 mph SSE9.7 kmh SSE 9.0 mph14.5 kmh 29.61 in1002.7 mb 0.00 in0.0 mm 0.00 in0.0 mm 0.00 in0.0 mm
11:49 AM 38.5°F3.6°C 36.6°F2.6°C 93% 5.0 mph S8.0 kmh S 8.0 mph12.9 kmh 29.61 in1002.7 mb 0.00 in0.0 mm 0.00 in0.0 mm 0.00 in0.0 mm
11:54 AM 38.7°F3.7°C 36.8°F2.7°C 93% 4.0 mph SSE6.4 kmh SSE 6.0 mph9.7 kmh 29.60 in1002.4 mb 0.00 in0.0 mm 0.00 in0.0 mm 0.00 in0.0 mm
11:59 AM 38.7°F3.7°C 36.8°F2.7°C 93% 6.0 mph SSE9.7 kmh SSE 8.0 mph12.9 kmh 29.60 in1002.4 mb 0.00 in0.0 mm 0.00 in0.0 mm 0.00 in0.0 mm
12:04 PM 38.8°F3.8°C 37.0°F2.8°C 93% 5.0 mph SE8.0 kmh SE 8.0 mph12.9 kmh 29.59 in1002.0 mb 0.00 in0.0 mm 0.00 in0.0 mm 0.00 in0.0 mm
12:09 PM 38.8°F3.8°C 37.0°F2.8°C 93% 5.0 mph SE8.0 kmh SE 9.0 mph14.5 kmh 29.59 in1002.0 mb 0.00 in0.0 mm 0.00 in0.0 mm 0.00 in0.0 mm
12:14 PM 38.8°F3.8°C 37.0°F2.8°C 93% 5.0 mph SE8.0 kmh SE 6.0 mph9.7 kmh 29.59 in1002.0 mb 0.00 in0.0 mm 0.00 in0.0 mm 0.00 in0.0 mm
12:19 PM 38.8°F3.8°C 37.0°F2.8°C 93% 6.0 mph SE9.7 kmh SE 9.0 mph14.5 kmh 29.59 in1002.0 mb 0.00 in0.0 mm 0.00 in0.0 mm 0.00 in0.0 mm
12:24 PM 39.0°F3.9°C 37.2°F2.9°C 93% 3.0 mph SSE4.8 kmh SSE 5.0 mph8.0 kmh 29.58 in1001.7 mb 0.00 in0.0 mm 0.00 in0.0 mm 0.00 in0.0 mm
12:29 PM 39.0°F3.9°C 36.9°F2.7°C 92% 4.0 mph S6.4 kmh S 6.0 mph9.7 kmh 29.58 in1001.7 mb 0.00 in0.0 mm 0.00 in0.0 mm 0.00 in0.0 mm
12:34 PM 39.0°F3.9°C 37.2°F2.9°C 93% 5.0 mph SSW8.0 kmh SSW 8.0 mph12.9 kmh 29.58 in1001.7 mb 0.00 in0.0 mm 0.00 in0.0 mm 0.00 in0.0 mm
12:39 PM 39.2°F4.0°C 37.4°F3.0°C 93% 3.0 mph SE4.8 kmh SE 5.0 mph8.0 kmh 29.57 in1001.4 mb 0.00 in0.0 mm 0.00 in0.0 mm 0.00 in0.0 mm
12:43 PM 39.4°F4.1°C 37.5°F3.1°C 93% 5.0 mph S8.0 kmh S 7.0 mph11.3 kmh 29.57 in1001.4 mb 0.00 in0.0 mm 0.00 in0.0 mm 0.00 in0.0 mm
01:00 PM 39.4°F4.1°C 37.5°F3.1°C 93% 5.0 mph S8.0 kmh S 7.0 mph11.3 kmh 29.57 in1001.4 mb 0.00 in0.0 mm 0.00 in0.0 mm 0.00 in0.0 mm
01:05 PM 39.4°F4.1°C 37.5°F3.1°C 93% 5.0 mph S8.0 kmh S 7.0 mph11.3 kmh 29.57 in1001.4 mb 0.00 in0.0 mm 0.00 in0.0 mm 0.00 in0.0 mm
01:10 PM 39.4°F4.1°C 37.5°F3.1°C 93% 5.0 mph S8.0 kmh S 7.0 mph11.3 kmh 29.57 in1001.4 mb 0.00 in0.0 mm 0.00 in0.0 mm 0.00 in0.0 mm
01:15 PM 39.4°F4.1°C 37.5°F3.1°C 93% 5.0 mph S8.0 kmh S 7.0 mph11.3 kmh 29.57 in1001.4 mb 0.00 in0.0 mm 0.00 in0.0 mm 0.00 in0.0 mm
01:20 PM 39.4°F4.1°C 37.5°F3.1°C 93% 5.0 mph S8.0 kmh S 7.0 mph11.3 kmh 29.57 in1001.4 mb 0.00 in0.0 mm 0.00 in0.0 mm 0.00 in0.0 mm
01:25 PM 39.4°F4.1°C 37.5°F3.1°C 93% 5.0 mph S8.0 kmh S 7.0 mph11.3 kmh 29.57 in1001.4 mb 0.00 in0.0 mm 0.00 in0.0 mm 0.00 in0.0 mm
01:30 PM 39.4°F4.1°C 37.5°F3.1°C 93% 5.0 mph S8.0 kmh S 7.0 mph11.3 kmh 29.57 in1001.4 mb 0.00 in0.0 mm 0.00 in0.0 mm 0.00 in0.0 mm
01:35 PM 39.4°F4.1°C 37.5°F3.1°C 93% 5.0 mph S8.0 kmh S 7.0 mph11.3 kmh 29.57 in1001.4 mb 0.00 in0.0 mm 0.00 in0.0 mm 0.00 in0.0 mm
01:40 PM 39.4°F4.1°C 37.5°F3.1°C 93% 5.0 mph S8.0 kmh S 7.0 mph11.3 kmh 29.57 in1001.4 mb 0.00 in0.0 mm 0.00 in0.0 mm 0.00 in0.0 mm
01:45 PM 39.4°F4.1°C 37.5°F3.1°C 93% 5.0 mph S8.0 kmh S 7.0 mph11.3 kmh 29.57 in1001.4 mb 0.00 in0.0 mm 0.00 in0.0 mm 0.00 in0.0 mm
01:50 PM 39.4°F4.1°C 37.5°F3.1°C 93% 5.0 mph S8.0 kmh S 7.0 mph11.3 kmh 29.57 in1001.4 mb 0.00 in0.0 mm 0.00 in0.0 mm 0.00 in0.0 mm
01:55 PM 39.4°F4.1°C 37.5°F3.1°C 93% 5.0 mph S8.0 kmh S 7.0 mph11.3 kmh 29.57 in1001.4 mb 0.00 in0.0 mm 0.00 in0.0 mm 0.00 in0.0 mm
02:00 PM 39.4°F4.1°C 37.5°F3.1°C 93% 5.0 mph S8.0 kmh S 7.0 mph11.3 kmh 29.57 in1001.4 mb 0.00 in0.0 mm 0.00 in0.0 mm 0.00 in0.0 mm
02:05 PM 39.4°F4.1°C 37.5°F3.1°C 93% 5.0 mph S8.0 kmh S 7.0 mph11.3 kmh 29.57 in1001.4 mb 0.00 in0.0 mm 0.00 in0.0 mm 0.00 in0.0 mm
02:09 PM 40.1°F4.5°C 37.7°F3.2°C 91% 5.0 mph SE8.0 kmh SE 7.0 mph11.3 kmh 29.52 in999.7 mb 0.00 in0.0 mm 0.00 in0.0 mm 0.00 in0.0 mm
02:14 PM 39.9°F4.4°C 37.5°F3.1°C 91% 7.0 mph SSE11.3 kmh SSE 9.0 mph14.5 kmh 29.52 in999.7 mb 0.00 in0.0 mm 0.00 in0.0 mm 0.00 in0.0 mm
02:19 PM 40.1°F4.5°C 37.7°F3.2°C 91% 4.0 mph S6.4 kmh S 7.0 mph11.3 kmh 29.52 in999.7 mb 0.00 in0.0 mm 0.00 in0.0 mm 0.00 in0.0 mm
02:24 PM 40.1°F4.5°C 37.4°F3.0°C 90% 5.0 mph SSW8.0 kmh SSW 8.0 mph12.9 kmh 29.52 in999.7 mb 0.00 in0.0 mm 0.00 in0.0 mm 0.00 in0.0 mm
02:29 PM 40.3°F4.6°C 37.9°F3.3°C 91% 6.0 mph SE9.7 kmh SE 9.0 mph14.5 kmh 29.52 in999.7 mb 0.00 in0.0 mm 0.00 in0.0 mm 0.00 in0.0 mm
02:34 PM 40.3°F4.6°C 37.9°F3.3°C 91% 5.0 mph SE8.0 kmh SE 10.0 mph16.1 kmh 29.51 in999.3 mb 0.00 in0.0 mm 0.00 in0.0 mm 0.00 in0.0 mm
02:39 PM 40.3°F4.6°C 37.9°F3.3°C 91% 5.0 mph SE8.0 kmh SE 7.0 mph11.3 kmh 29.51 in999.3 mb 0.00 in0.0 mm 0.00 in0.0 mm 0.00 in0.0 mm
02:44 PM 40.5°F4.7°C 38.0°F3.3°C 91% 6.0 mph SE9.7 kmh SE 8.0 mph12.9 kmh 29.51 in999.3 mb 0.00 in0.0 mm 0.00 in0.0 mm 0.00 in0.0 mm
02:49 PM 40.5°F4.7°C 38.0°F3.3°C 91% 6.0 mph SE9.7 kmh SE 9.0 mph14.5 kmh 29.51 in999.3 mb 0.00 in0.0 mm 0.00 in0.0 mm 0.00 in0.0 mm
02:54 PM 40.5°F4.7°C 37.8°F3.2°C 90% 5.0 mph SE8.0 kmh SE 7.0 mph11.3 kmh 29.51 in999.3 mb 0.00 in0.0 mm 0.00 in0.0 mm 0.00 in0.0 mm
02:59 PM 40.5°F4.7°C 37.8°F3.2°C 90% 4.0 mph SE6.4 kmh SE 7.0 mph11.3 kmh 29.51 in999.3 mb 0.00 in0.0 mm 0.00 in0.0 mm 0.00 in0.0 mm
03:04 PM 40.5°F4.7°C 37.8°F3.2°C 90% 5.0 mph SSE8.0 kmh SSE 7.0 mph11.3 kmh 29.50 in999.0 mb 0.00 in0.0 mm 0.00 in0.0 mm 0.00 in0.0 mm
03:09 PM 40.5°F4.7°C 37.8°F3.2°C 90% 6.0 mph SE9.7 kmh SE 9.0 mph14.5 kmh 29.50 in999.0 mb 0.00 in0.0 mm 0.00 in0.0 mm 0.00 in0.0 mm
03:14 PM 40.5°F4.7°C 38.0°F3.3°C 91% 5.0 mph SE8.0 kmh SE 6.0 mph9.7 kmh 29.50 in999.0 mb 0.00 in0.0 mm 0.00 in0.0 mm 0.00 in0.0 mm
03:19 PM 40.5°F4.7°C 37.8°F3.2°C 90% 7.0 mph SE11.3 kmh SE 9.0 mph14.5 kmh 29.50 in999.0 mb 0.00 in0.0 mm 0.00 in0.0 mm 0.00 in0.0 mm
03:24 PM 40.3°F4.6°C 37.6°F3.1°C 90% 5.0 mph SSE8.0 kmh SSE 7.0 mph11.3 kmh 29.50 in999.0 mb 0.00 in0.0 mm 0.00 in0.0 mm 0.00 in0.0 mm
03:29 PM 40.5°F4.7°C 37.8°F3.2°C 90% 3.0 mph SE4.8 kmh SE 4.0 mph6.4 kmh 29.50 in999.0 mb 0.00 in0.0 mm 0.00 in0.0 mm 0.00 in0.0 mm
03:34 PM 40.5°F4.7°C 37.8°F3.2°C 90% 4.0 mph SE6.4 kmh SE 7.0 mph11.3 kmh 29.50 in999.0 mb 0.00 in0.0 mm 0.00 in0.0 mm 0.00 in0.0 mm
03:39 PM 40.3°F4.6°C 37.6°F3.1°C 90% 4.0 mph SSE6.4 kmh SSE 5.0 mph8.0 kmh 29.50 in999.0 mb 0.00 in0.0 mm 0.00 in0.0 mm 0.00 in0.0 mm
03:44 PM 40.1°F4.5°C 37.4°F3.0°C 90% 3.0 mph SE4.8 kmh SE 5.0 mph8.0 kmh 29.50 in999.0 mb 0.00 in0.0 mm 0.00 in0.0 mm 0.00 in0.0 mm
03:49 PM 40.1°F4.5°C 37.4°F3.0°C 90% 4.0 mph SE6.4 kmh SE 5.0 mph8.0 kmh 29.50 in999.0 mb 0.00 in0.0 mm 0.00 in0.0 mm 0.00 in0.0 mm
03:54 PM 39.9°F4.4°C 36.9°F2.7°C 89% 2.0 mph S3.2 kmh S 3.0 mph4.8 kmh 29.51 in999.3 mb 0.00 in0.0 mm 0.00 in0.0 mm 0.00 in0.0 mm
03:59 PM 39.9°F4.4°C 37.2°F2.9°C 90% 4.0 mph SSW6.4 kmh SSW 6.0 mph9.7 kmh 29.51 in999.3 mb 0.00 in0.0 mm 0.00 in0.0 mm 0.00 in0.0 mm
04:04 PM 39.7°F4.3°C 37.1°F2.8°C 90% 3.0 mph SE4.8 kmh SE 6.0 mph9.7 kmh 29.51 in999.3 mb 0.00 in0.0 mm 0.00 in0.0 mm 0.00 in0.0 mm
04:09 PM 39.7°F4.3°C 37.1°F2.8°C 90% 2.0 mph SSE3.2 kmh SSE 4.0 mph6.4 kmh 29.51 in999.3 mb 0.00 in0.0 mm 0.00 in0.0 mm 0.00 in0.0 mm
04:14 PM 39.7°F4.3°C 37.1°F2.8°C 90% 2.0 mph SSE3.2 kmh SSE 3.0 mph4.8 kmh 29.51 in999.3 mb 0.00 in0.0 mm 0.00 in0.0 mm 0.00 in0.0 mm
04:19 PM 39.7°F4.3°C 37.1°F2.8°C 90% 2.0 mph SSE3.2 kmh SSE 5.0 mph8.0 kmh 29.51 in999.3 mb 0.00 in0.0 mm 0.00 in0.0 mm 0.00 in0.0 mm
04:24 PM 39.7°F4.3°C 37.1°F2.8°C 90% 2.0 mph SSE3.2 kmh SSE 2.0 mph3.2 kmh 29.51 in999.3 mb 0.00 in0.0 mm 0.00 in0.0 mm 0.00 in0.0 mm
04:29 PM 39.6°F4.2°C 36.9°F2.7°C 90% 1.0 mph SSE1.6 kmh SSE 2.0 mph3.2 kmh 29.51 in999.3 mb 0.00 in0.0 mm 0.00 in0.0 mm 0.00 in0.0 mm
04:34 PM 39.6°F4.2°C 36.9°F2.7°C 90% 1.0 mph SSE1.6 kmh SSE 2.0 mph3.2 kmh 29.52 in999.7 mb 0.00 in0.0 mm 0.00 in0.0 mm 0.00 in0.0 mm
04:39 PM 39.6°F4.2°C 36.6°F2.6°C 89% Calm Calm 1.0 mph1.6 kmh 29.52 in999.7 mb 0.00 in0.0 mm 0.00 in0.0 mm 0.00 in0.0 mm
04:44 PM 39.6°F4.2°C 36.9°F2.7°C 90% 2.0 mph SSE3.2 kmh SSE 4.0 mph6.4 kmh 29.51 in999.3 mb 0.00 in0.0 mm 0.00 in0.0 mm 0.00 in0.0 mm
04:49 PM 39.4°F4.1°C 36.7°F2.6°C 90% 1.0 mph ESE1.6 kmh ESE 2.0 mph3.2 kmh 29.52 in999.7 mb 0.00 in0.0 mm 0.00 in0.0 mm 0.00 in0.0 mm
04:54 PM 39.4°F4.1°C 36.7°F2.6°C 90% 2.0 mph ESE3.2 kmh ESE 2.0 mph3.2 kmh 29.52 in999.7 mb 0.00 in0.0 mm 0.00 in0.0 mm 0.00 in0.0 mm
04:59 PM 39.4°F4.1°C 36.7°F2.6°C 90% 1.0 mph ESE1.6 kmh ESE 2.0 mph3.2 kmh 29.52 in999.7 mb 0.00 in0.0 mm 0.00 in0.0 mm 0.00 in0.0 mm
05:04 PM 39.4°F4.1°C 36.7°F2.6°C 90% Calm Calm -- 29.52 in999.7 mb 0.00 in0.0 mm 0.00 in0.0 mm 0.00 in0.0 mm
05:09 PM 39.4°F4.1°C 36.7°F2.6°C 90% Calm Calm -- 29.52 in999.7 mb 0.00 in0.0 mm 0.00 in0.0 mm 0.00 in0.0 mm
05:14 PM 39.4°F4.1°C 36.7°F2.6°C 90% Calm Calm -- 29.52 in999.7 mb 0.00 in0.0 mm 0.00 in0.0 mm 0.00 in0.0 mm
05:19 PM 39.4°F4.1°C 36.7°F2.6°C 90% 1.0 mph ESE1.6 kmh ESE 2.0 mph3.2 kmh 29.52 in999.7 mb 0.00 in0.0 mm 0.00 in0.0 mm 0.00 in0.0 mm
05:24 PM 39.4°F4.1°C 36.7°F2.6°C 90% 1.0 mph SSE1.6 kmh SSE 1.0 mph1.6 kmh 29.52 in999.7 mb 0.00 in0.0 mm 0.00 in0.0 mm 0.00 in0.0 mm
05:29 PM 39.4°F4.1°C 36.7°F2.6°C 90% 1.0 mph SSE1.6 kmh SSE 1.0 mph1.6 kmh 29.52 in999.7 mb 0.00 in0.0 mm 0.00 in0.0 mm 0.00 in0.0 mm
05:34 PM 39.4°F4.1°C 36.7°F2.6°C 90% Calm Calm -- 29.52 in999.7 mb 0.00 in0.0 mm 0.00 in0.0 mm 0.00 in0.0 mm
05:39 PM 39.4°F4.1°C 37.0°F2.8°C 91% Calm Calm 1.0 mph1.6 kmh 29.53 in1000.0 mb 0.00 in0.0 mm 0.00 in0.0 mm 0.00 in0.0 mm
05:44 PM 39.4°F4.1°C 37.0°F2.8°C 91% Calm Calm 1.0 mph1.6 kmh 29.53 in1000.0 mb 0.00 in0.0 mm 0.00 in0.0 mm 0.00 in0.0 mm
05:49 PM 39.4°F4.1°C 37.0°F2.8°C 91% Calm Calm 1.0 mph1.6 kmh 29.53 in1000.0 mb 0.00 in0.0 mm 0.00 in0.0 mm 0.00 in0.0 mm
05:54 PM 39.4°F4.1°C 37.0°F2.8°C 91% Calm Calm 1.0 mph1.6 kmh 29.53 in1000.0 mb 0.00 in0.0 mm 0.00 in0.0 mm 0.00 in0.0 mm
05:59 PM 39.6°F4.2°C 37.2°F2.9°C 91% Calm Calm -- 29.54 in1000.3 mb 0.00 in0.0 mm 0.00 in0.0 mm 0.00 in0.0 mm
06:04 PM 39.6°F4.2°C 37.2°F2.9°C 91% Calm Calm 1.0 mph1.6 kmh 29.54 in1000.3 mb 0.00 in0.0 mm 0.00 in0.0 mm 0.00 in0.0 mm
06:09 PM 39.6°F4.2°C 37.2°F2.9°C 91% 3.0 mph SSE4.8 kmh SSE 3.0 mph4.8 kmh 29.54 in1000.3 mb 0.00 in0.0 mm 0.00 in0.0 mm 0.00 in0.0 mm
06:14 PM 39.4°F4.1°C 37.0°F2.8°C 91% 1.0 mph WSW1.6 kmh WSW 2.0 mph3.2 kmh 29.54 in1000.3 mb 0.00 in0.0 mm 0.00 in0.0 mm 0.00 in0.0 mm
06:19 PM 39.4°F4.1°C 37.0°F2.8°C 91% Calm Calm 1.0 mph1.6 kmh 29.54 in1000.3 mb 0.00 in0.0 mm 0.00 in0.0 mm 0.00 in0.0 mm
06:24 PM 39.4°F4.1°C 37.0°F2.8°C 91% 1.0 mph WSW1.6 kmh WSW 1.0 mph1.6 kmh 29.54 in1000.3 mb 0.00 in0.0 mm 0.00 in0.0 mm 0.01 in0.3 mm
06:29 PM 39.4°F4.1°C 37.3°F2.9°C 92% 1.0 mph WSW1.6 kmh WSW 2.0 mph3.2 kmh 29.54 in1000.3 mb 0.00 in0.0 mm 0.00 in0.0 mm 0.01 in0.3 mm
06:34 PM 39.2°F4.0°C 37.1°F2.8°C 92% 1.0 mph WSW1.6 kmh WSW 3.0 mph4.8 kmh 29.55 in1000.7 mb 0.00 in0.0 mm 0.00 in0.0 mm 0.01 in0.3 mm
06:39 PM 39.2°F4.0°C 37.1°F2.8°C 92% 2.0 mph WSW3.2 kmh WSW 3.0 mph4.8 kmh 29.55 in1000.7 mb 0.00 in0.0 mm 0.00 in0.0 mm 0.01 in0.3 mm
06:44 PM 39.0°F3.9°C 36.9°F2.7°C 92% 2.0 mph W3.2 kmh W 3.0 mph4.8 kmh 29.55 in1000.7 mb 0.00 in0.0 mm 0.00 in0.0 mm 0.01 in0.3 mm
06:49 PM 39.0°F3.9°C 36.9°F2.7°C 92% 1.0 mph W1.6 kmh W 2.0 mph3.2 kmh 29.55 in1000.7 mb 0.00 in0.0 mm 0.00 in0.0 mm 0.01 in0.3 mm
06:54 PM 39.0°F3.9°C 36.9°F2.7°C 92% 2.0 mph W3.2 kmh W 3.0 mph4.8 kmh 29.55 in1000.7 mb 0.00 in0.0 mm 0.00 in0.0 mm 0.01 in0.3 mm
06:59 PM 39.0°F3.9°C 36.9°F2.7°C 92% Calm Calm 2.0 mph3.2 kmh 29.55 in1000.7 mb 0.00 in0.0 mm 0.00 in0.0 mm 0.01 in0.3 mm
07:04 PM 39.0°F3.9°C 36.9°F2.7°C 92% 1.0 mph W1.6 kmh W 2.0 mph3.2 kmh 29.55 in1000.7 mb 0.00 in0.0 mm 0.00 in0.0 mm 0.01 in0.3 mm
07:09 PM 39.0°F3.9°C 36.9°F2.7°C 92% 1.0 mph W1.6 kmh W 2.0 mph3.2 kmh 29.56 in1001.0 mb 0.00 in0.0 mm 0.00 in0.0 mm 0.01 in0.3 mm
07:14 PM 39.0°F3.9°C 37.2°F2.9°C 93% 1.0 mph W1.6 kmh W 2.0 mph3.2 kmh 29.56 in1001.0 mb 0.00 in0.0 mm 0.00 in0.0 mm 0.01 in0.3 mm
07:19 PM 39.2°F4.0°C 37.4°F3.0°C 93% 2.0 mph W3.2 kmh W 3.0 mph4.8 kmh 29.56 in1001.0 mb 0.00 in0.0 mm 0.00 in0.0 mm 0.02 in0.5 mm
07:24 PM 39.0°F3.9°C 37.2°F2.9°C 93% 2.0 mph W3.2 kmh W 4.0 mph6.4 kmh 29.56 in1001.0 mb 0.00 in0.0 mm 0.00 in0.0 mm 0.02 in0.5 mm
07:29 PM 39.0°F3.9°C 37.2°F2.9°C 93% 2.0 mph WNW3.2 kmh WNW 4.0 mph6.4 kmh 29.56 in1001.0 mb 0.00 in0.0 mm 0.00 in0.0 mm 0.02 in0.5 mm
07:34 PM 39.0°F3.9°C 37.2°F2.9°C 93% 5.0 mph NW8.0 kmh NW 8.0 mph12.9 kmh 29.57 in1001.4 mb 0.00 in0.0 mm 0.00 in0.0 mm 0.02 in0.5 mm
07:39 PM 39.0°F3.9°C 37.2°F2.9°C 93% 3.0 mph NW4.8 kmh NW 5.0 mph8.0 kmh 29.57 in1001.4 mb 0.00 in0.0 mm 0.00 in0.0 mm 0.02 in0.5 mm
07:44 PM 38.8°F3.8°C 37.0°F2.8°C 93% 5.0 mph N8.0 kmh N 8.0 mph12.9 kmh 29.57 in1001.4 mb 0.00 in0.0 mm 0.00 in0.0 mm 0.02 in0.5 mm
07:49 PM 38.7°F3.7°C 36.8°F2.7°C 93% 3.0 mph NNE4.8 kmh NNE 6.0 mph9.7 kmh 29.57 in1001.4 mb 0.00 in0.0 mm 0.00 in0.0 mm 0.02 in0.5 mm
07:54 PM 38.7°F3.7°C 36.8°F2.7°C 93% 4.0 mph N6.4 kmh N 5.0 mph8.0 kmh 29.58 in1001.7 mb 0.00 in0.0 mm 0.00 in0.0 mm 0.03 in0.8 mm
07:59 PM 38.7°F3.7°C 36.8°F2.7°C 93% 7.0 mph NW11.3 kmh NW 10.0 mph16.1 kmh 29.58 in1001.7 mb 0.00 in0.0 mm 0.00 in0.0 mm 0.03 in0.8 mm
08:04 PM 38.5°F3.6°C 36.6°F2.6°C 93% 4.0 mph NW6.4 kmh NW 6.0 mph9.7 kmh 29.58 in1001.7 mb 0.00 in0.0 mm 0.00 in0.0 mm 0.03 in0.8 mm
08:09 PM 38.5°F3.6°C 36.6°F2.6°C 93% 7.0 mph WNW11.3 kmh WNW 11.0 mph17.7 kmh 29.58 in1001.7 mb 0.00 in0.0 mm 0.00 in0.0 mm 0.03 in0.8 mm
08:14 PM 38.5°F3.6°C 36.6°F2.6°C 93% 5.0 mph NW8.0 kmh NW 8.0 mph12.9 kmh 29.59 in1002.0 mb 0.00 in0.0 mm 0.00 in0.0 mm 0.03 in0.8 mm
08:19 PM 38.1°F3.4°C 36.3°F2.4°C 93% 7.0 mph N11.3 kmh N 10.0 mph16.1 kmh 29.59 in1002.0 mb 0.00 in0.0 mm 0.00 in0.0 mm 0.04 in1.0 mm
08:24 PM 38.1°F3.4°C 36.3°F2.4°C 93% 4.0 mph NNW6.4 kmh NNW 6.0 mph9.7 kmh 29.59 in1002.0 mb 0.00 in0.0 mm 0.00 in0.0 mm 0.04 in1.0 mm
08:29 PM 38.1°F3.4°C 36.3°F2.4°C 93% 4.0 mph NNW6.4 kmh NNW 6.0 mph9.7 kmh 29.59 in1002.0 mb 0.00 in0.0 mm 0.00 in0.0 mm 0.04 in1.0 mm
08:34 PM 38.1°F3.4°C 36.3°F2.4°C 93% 5.0 mph N8.0 kmh N 8.0 mph12.9 kmh 29.59 in1002.0 mb 0.00 in0.0 mm 0.00 in0.0 mm 0.04 in1.0 mm
08:39 PM 37.9°F3.3°C 36.1°F2.3°C 93% 3.0 mph NNW4.8 kmh NNW 4.0 mph6.4 kmh 29.60 in1002.4 mb 0.00 in0.0 mm 0.00 in0.0 mm 0.04 in1.0 mm
08:44 PM 37.9°F3.3°C 36.1°F2.3°C 93% 3.0 mph N4.8 kmh N 4.0 mph6.4 kmh 29.60 in1002.4 mb 0.00 in0.0 mm 0.00 in0.0 mm 0.04 in1.0 mm
08:49 PM 37.9°F3.3°C 36.1°F2.3°C 93% 3.0 mph N4.8 kmh N 5.0 mph8.0 kmh 29.60 in1002.4 mb 0.00 in0.0 mm 0.00 in0.0 mm 0.05 in1.3 mm
08:54 PM 38.1°F3.4°C 36.3°F2.4°C 93% 3.0 mph N4.8 kmh N 5.0 mph8.0 kmh 29.60 in1002.4 mb 0.00 in0.0 mm 0.00 in0.0 mm 0.05 in1.3 mm
08:59 PM 38.1°F3.4°C 36.3°F2.4°C 93% 3.0 mph N4.8 kmh N 4.0 mph6.4 kmh 29.60 in1002.4 mb 0.00 in0.0 mm 0.00 in0.0 mm 0.05 in1.3 mm
09:04 PM 38.1°F3.4°C 36.3°F2.4°C 93% 3.0 mph NNE4.8 kmh NNE 4.0 mph6.4 kmh 29.61 in1002.7 mb 0.00 in0.0 mm 0.00 in0.0 mm 0.05 in1.3 mm
09:09 PM 38.3°F3.5°C 36.5°F2.5°C 93% 4.0 mph NNW6.4 kmh NNW 6.0 mph9.7 kmh 29.61 in1002.7 mb 0.00 in0.0 mm 0.00 in0.0 mm 0.05 in1.3 mm
09:14 PM 38.5°F3.6°C 36.6°F2.6°C 93% 2.0 mph NNW3.2 kmh NNW 3.0 mph4.8 kmh 29.61 in1002.7 mb 0.00 in0.0 mm 0.00 in0.0 mm 0.05 in1.3 mm
09:19 PM 38.5°F3.6°C 36.6°F2.6°C 93% 4.0 mph NW6.4 kmh NW 6.0 mph9.7 kmh 29.61 in1002.7 mb 0.00 in0.0 mm 0.00 in0.0 mm 0.05 in1.3 mm
09:24 PM 38.5°F3.6°C 36.6°F2.6°C 93% 3.0 mph NNW4.8 kmh NNW 6.0 mph9.7 kmh 29.62 in1003.0 mb 0.00 in0.0 mm 0.00 in0.0 mm 0.05 in1.3 mm
09:29 PM 38.5°F3.6°C 36.4°F2.4°C 92% 1.0 mph NNW1.6 kmh NNW 2.0 mph3.2 kmh 29.61 in1002.7 mb 0.00 in0.0 mm 0.00 in0.0 mm 0.05 in1.3 mm
09:34 PM 38.5°F3.6°C 36.4°F2.4°C 92% 2.0 mph NNW3.2 kmh NNW 5.0 mph8.0 kmh 29.62 in1003.0 mb 0.00 in0.0 mm 0.00 in0.0 mm 0.05 in1.3 mm
09:39 PM 38.7°F3.7°C 36.5°F2.5°C 92% 1.0 mph NW1.6 kmh NW 2.0 mph3.2 kmh 29.62 in1003.0 mb 0.00 in0.0 mm 0.00 in0.0 mm 0.05 in1.3 mm
09:44 PM 38.7°F3.7°C 36.5°F2.5°C 92% 2.0 mph NNW3.2 kmh NNW 3.0 mph4.8 kmh 29.62 in1003.0 mb 0.00 in0.0 mm 0.00 in0.0 mm 0.05 in1.3 mm
09:49 PM 38.7°F3.7°C 36.5°F2.5°C 92% 3.0 mph WNW4.8 kmh WNW 5.0 mph8.0 kmh 29.63 in1003.4 mb 0.00 in0.0 mm 0.00 in0.0 mm 0.05 in1.3 mm
09:54 PM 38.8°F3.8°C 36.7°F2.6°C 92% 3.0 mph NW4.8 kmh NW 4.0 mph6.4 kmh 29.63 in1003.4 mb 0.00 in0.0 mm 0.00 in0.0 mm 0.05 in1.3 mm
09:59 PM 38.8°F3.8°C 36.7°F2.6°C 92% 3.0 mph NW4.8 kmh NW 5.0 mph8.0 kmh 29.64 in1003.7 mb 0.00 in0.0 mm 0.00 in0.0 mm 0.05 in1.3 mm
10:04 PM 39.0°F3.9°C 36.6°F2.6°C 91% 5.0 mph NW8.0 kmh NW 8.0 mph12.9 kmh 29.64 in1003.7 mb 0.00 in0.0 mm 0.00 in0.0 mm 0.05 in1.3 mm
10:09 PM 39.0°F3.9°C 36.9°F2.7°C 92% 4.0 mph NW6.4 kmh NW 8.0 mph12.9 kmh 29.64 in1003.7 mb 0.00 in0.0 mm 0.00 in0.0 mm 0.05 in1.3 mm
10:14 PM 39.0°F3.9°C 36.6°F2.6°C 91% 3.0 mph WNW4.8 kmh WNW 4.0 mph6.4 kmh 29.64 in1003.7 mb 0.00 in0.0 mm 0.00 in0.0 mm 0.06 in1.5 mm
10:19 PM 39.2°F4.0°C 37.1°F2.8°C 92% 4.0 mph WNW6.4 kmh WNW 6.0 mph9.7 kmh 29.64 in1003.7 mb 0.00 in0.0 mm 0.00 in0.0 mm 0.06 in1.5 mm
10:24 PM 39.2°F4.0°C 37.1°F2.8°C 92% 5.0 mph NW8.0 kmh NW 8.0 mph12.9 kmh 29.65 in1004.1 mb 0.00 in0.0 mm 0.00 in0.0 mm 0.06 in1.5 mm
10:29 PM 39.2°F4.0°C 36.8°F2.7°C 91% 7.0 mph NW11.3 kmh NW 11.0 mph17.7 kmh 29.65 in1004.1 mb 0.00 in0.0 mm 0.00 in0.0 mm 0.06 in1.5 mm
10:34 PM 39.0°F3.9°C 36.6°F2.6°C 91% 6.0 mph NW9.7 kmh NW 8.0 mph12.9 kmh 29.66 in1004.4 mb 0.00 in0.0 mm 0.00 in0.0 mm 0.06 in1.5 mm
10:39 PM 38.8°F3.8°C 36.4°F2.4°C 91% 6.0 mph NW9.7 kmh NW 10.0 mph16.1 kmh 29.65 in1004.1 mb 0.00 in0.0 mm 0.00 in0.0 mm 0.07 in1.8 mm
10:44 PM 38.8°F3.8°C 36.4°F2.4°C 91% 6.0 mph NNW9.7 kmh NNW 9.0 mph14.5 kmh 29.66 in1004.4 mb 0.00 in0.0 mm 0.00 in0.0 mm 0.07 in1.8 mm
10:49 PM 38.8°F3.8°C 36.4°F2.4°C 91% 3.0 mph NNE4.8 kmh NNE 4.0 mph6.4 kmh 29.65 in1004.1 mb 0.00 in0.0 mm 0.00 in0.0 mm 0.08 in2.0 mm
10:54 PM 38.8°F3.8°C 36.4°F2.4°C 91% 3.0 mph NNW4.8 kmh NNW 4.0 mph6.4 kmh 29.66 in1004.4 mb 0.00 in0.0 mm 0.00 in0.0 mm 0.08 in2.0 mm
10:59 PM 38.8°F3.8°C 36.4°F2.4°C 91% 3.0 mph NW4.8 kmh NW 5.0 mph8.0 kmh 29.66 in1004.4 mb 0.00 in0.0 mm 0.00 in0.0 mm 0.08 in2.0 mm
11:04 PM 38.8°F3.8°C 36.4°F2.4°C 91% 3.0 mph WNW4.8 kmh WNW 3.0 mph4.8 kmh 29.66 in1004.4 mb 0.00 in0.0 mm 0.00 in0.0 mm 0.08 in2.0 mm
11:09 PM 38.8°F3.8°C 36.4°F2.4°C 91% 4.0 mph WNW6.4 kmh WNW 4.0 mph6.4 kmh 29.66 in1004.4 mb 0.00 in0.0 mm 0.00 in0.0 mm 0.08 in2.0 mm
11:14 PM 39.0°F3.9°C 36.6°F2.6°C 91% 2.0 mph WNW3.2 kmh WNW 3.0 mph4.8 kmh 29.66 in1004.4 mb 0.00 in0.0 mm 0.00 in0.0 mm 0.08 in2.0 mm
11:19 PM 39.0°F3.9°C 36.6°F2.6°C 91% 2.0 mph WNW3.2 kmh WNW 3.0 mph4.8 kmh 29.67 in1004.7 mb 0.00 in0.0 mm 0.00 in0.0 mm 0.08 in2.0 mm
11:24 PM 39.2°F4.0°C 37.1°F2.8°C 92% 3.0 mph W4.8 kmh W 4.0 mph6.4 kmh 29.67 in1004.7 mb 0.00 in0.0 mm 0.00 in0.0 mm 0.08 in2.0 mm
11:29 PM 39.4°F4.1°C 37.3°F2.9°C 92% 1.0 mph WNW1.6 kmh WNW 2.0 mph3.2 kmh 29.67 in1004.7 mb 0.00 in0.0 mm 0.00 in0.0 mm 0.08 in2.0 mm
11:34 PM 39.6°F4.2°C 37.4°F3.0°C 92% 10.0 mph NNW16.1 kmh NNW 13.0 mph20.9 kmh 29.68 in1005.1 mb 0.00 in0.0 mm 0.00 in0.0 mm 0.08 in2.0 mm
11:39 PM 39.7°F4.3°C 37.3°F2.9°C 91% 12.0 mph NNE19.3 kmh NNE 19.0 mph30.6 kmh 29.68 in1005.1 mb 0.00 in0.0 mm 0.00 in0.0 mm 0.08 in2.0 mm
11:44 PM 38.8°F3.8°C 36.2°F2.3°C 90% 8.0 mph N12.9 kmh N 12.0 mph19.3 kmh 29.68 in1005.1 mb 0.00 in0.0 mm 0.00 in0.0 mm 0.08 in2.0 mm
11:49 PM 38.7°F3.7°C 36.3°F2.4°C 91% 4.0 mph NNE6.4 kmh NNE 8.0 mph12.9 kmh 29.68 in1005.1 mb 0.00 in0.0 mm 0.00 in0.0 mm 0.08 in2.0 mm
11:54 PM 38.5°F3.6°C 36.1°F2.3°C 91% 4.0 mph NE6.4 kmh NE 9.0 mph14.5 kmh 29.68 in1005.1 mb 0.00 in0.0 mm 0.00 in0.0 mm 0.08 in2.0 mm
11:59 PM 38.3°F3.5°C 35.9°F2.2°C 91% 4.0 mph NNE6.4 kmh NNE 8.0 mph12.9 kmh 29.69 in1005.4 mb 0.00 in0.0 mm 0.00 in0.0 mm 0.08 in2.0 mm